createdAt,value
2018-06-22T00:01:07.294Z,99.90
2018-06-22T00:03:34.202Z,99.90
2018-06-22T00:06:01.147Z,99.90
2018-06-22T00:08:28.377Z,99.90
2018-06-22T00:10:55.317Z,99.90
2018-06-22T00:13:22.225Z,99.90
2018-06-22T00:15:49.169Z,99.90
2018-06-22T00:18:16.086Z,99.90
2018-06-22T00:20:43.033Z,99.90
2018-06-22T00:23:09.948Z,99.90
2018-06-22T00:25:36.893Z,99.90
2018-06-22T00:28:03.838Z,99.90
2018-06-22T00:30:30.750Z,99.90
2018-06-22T00:32:57.690Z,99.90
2018-06-22T00:35:24.897Z,99.90
2018-06-22T00:37:51.830Z,99.90
2018-06-22T00:40:18.741Z,99.90
2018-06-22T00:42:45.681Z,99.90
2018-06-22T00:45:12.602Z,99.90
2018-06-22T00:47:39.542Z,99.90
2018-06-22T00:50:06.462Z,99.90
2018-06-22T00:52:33.397Z,99.90
2018-06-22T00:55:00.315Z,99.90
2018-06-22T00:57:27.526Z,99.90
2018-06-22T00:59:54.449Z,99.90
2018-06-22T01:02:21.389Z,99.90
2018-06-22T01:04:48.298Z,99.90
2018-06-22T01:07:15.258Z,99.90
2018-06-22T01:09:43.042Z,99.90
2018-06-22T01:12:10.191Z,99.90
2018-06-22T01:14:37.875Z,99.90
2018-06-22T01:17:04.813Z,99.90
2018-06-22T01:19:31.848Z,99.90
2018-06-22T01:21:58.765Z,99.90
2018-06-22T01:24:25.714Z,99.90
2018-06-22T01:26:52.637Z,99.90
2018-06-22T01:29:31.446Z,99.90
2018-06-22T01:31:58.966Z,99.90
2018-06-22T01:34:26.141Z,99.90
2018-06-22T01:36:53.078Z,99.90
2018-06-22T01:39:20.022Z,99.90
2018-06-22T01:41:46.937Z,99.90
2018-06-22T01:44:13.883Z,99.90
2018-06-22T01:46:40.798Z,99.90
2018-06-22T01:49:07.713Z,99.90
2018-06-22T01:51:34.658Z,99.90
2018-06-22T01:54:01.866Z,99.90
2018-06-22T01:56:28.810Z,99.90
2018-06-22T01:58:55.729Z,99.90
2018-06-22T02:01:22.673Z,99.90
2018-06-22T02:03:49.608Z,99.90
2018-06-22T02:08:43.473Z,99.90
2018-06-22T02:11:10.446Z,99.90
2018-06-22T02:13:37.587Z,99.90
2018-06-22T02:16:04.646Z,99.90
2018-06-22T02:18:31.659Z,99.90
2018-06-22T02:20:58.601Z,99.90
2018-06-22T02:23:25.517Z,99.90
2018-06-22T02:25:52.458Z,99.90
2018-06-22T02:28:19.409Z,99.90
2018-06-22T02:30:46.386Z,99.90
2018-06-22T02:33:13.308Z,99.90
2018-06-22T02:35:40.254Z,99.90
2018-06-22T02:38:07.172Z,99.90
2018-06-22T02:40:34.418Z,99.90
2018-06-22T02:45:28.265Z,99.90
2018-06-22T02:47:55.185Z,99.90
2018-06-22T02:50:22.097Z,99.90
2018-06-22T02:52:49.046Z,99.90
2018-06-22T02:55:15.995Z,99.90
2018-06-22T02:57:42.938Z,99.90
2018-06-22T03:02:36.776Z,99.90
2018-06-22T03:05:03.707Z,99.90
2018-06-22T03:07:30.674Z,99.90
2018-06-22T03:09:57.595Z,99.90
2018-06-22T03:12:24.533Z,99.90
2018-06-22T03:14:52.242Z,99.90
2018-06-22T03:17:19.202Z,99.90
2018-06-22T03:19:46.122Z,99.90
2018-06-22T03:22:13.070Z,99.90
2018-06-22T03:24:40.020Z,99.90
2018-06-22T03:27:06.934Z,99.90
2018-06-22T03:29:33.881Z,99.90
2018-06-22T03:32:00.875Z,99.90
2018-06-22T03:34:27.768Z,99.90
2018-06-22T03:36:54.690Z,99.90
2018-06-22T03:39:21.631Z,99.90
2018-06-22T03:41:48.549Z,99.90
2018-06-22T03:44:15.493Z,99.90
2018-06-22T03:46:42.409Z,99.90
2018-06-22T03:49:09.741Z,99.90
2018-06-22T03:51:36.658Z,99.90
2018-06-22T03:54:03.635Z,99.90
2018-06-22T03:56:30.613Z,99.90
2018-06-22T03:58:57.573Z,99.90
2018-06-22T04:01:24.725Z,99.90
2018-06-22T04:03:52.001Z,99.90
2018-06-22T04:06:18.913Z,99.90
2018-06-22T04:08:45.851Z,99.90
2018-06-22T04:11:12.799Z,99.90
2018-06-22T04:13:39.721Z,99.90
2018-06-22T04:16:06.661Z,99.90
2018-06-22T04:18:33.589Z,99.90
2018-06-22T04:21:00.579Z,99.90
2018-06-22T04:23:27.497Z,99.90
2018-06-22T04:25:54.448Z,99.90
2018-06-22T04:28:21.370Z,99.90
2018-06-22T04:30:48.319Z,99.90
2018-06-22T04:33:15.241Z,99.90
2018-06-22T04:35:42.195Z,99.90
2018-06-22T04:40:36.056Z,99.90
2018-06-22T04:43:03.325Z,99.90
2018-06-22T04:45:30.246Z,99.90
2018-06-22T04:47:57.191Z,99.90
2018-06-22T04:50:24.115Z,99.90
2018-06-22T04:52:51.066Z,99.90
2018-06-22T04:55:18.253Z,99.90
2018-06-22T04:57:45.197Z,99.90
2018-06-22T05:00:12.178Z,99.90
2018-06-22T05:02:39.117Z,99.90
2018-06-22T05:05:06.047Z,99.90
2018-06-22T05:07:33.014Z,99.90
2018-06-22T05:09:59.927Z,99.90
2018-06-22T05:12:26.870Z,99.90
2018-06-22T05:14:53.783Z,99.90
2018-06-22T05:17:20.722Z,99.90
2018-06-22T05:19:47.634Z,99.90
2018-06-22T05:22:14.569Z,99.90
2018-06-22T05:24:41.806Z,99.90
2018-06-22T05:27:08.758Z,99.90
2018-06-22T05:33:37.406Z,99.90
2018-06-22T05:36:04.698Z,99.90
2018-06-22T05:38:31.894Z,99.90
2018-06-22T05:40:58.818Z,99.90
2018-06-22T05:43:25.762Z,99.90
2018-06-22T05:45:52.682Z,99.90
2018-06-22T05:48:19.627Z,99.90
2018-06-22T05:50:46.813Z,99.90
2018-06-22T05:53:13.772Z,99.90
2018-06-22T05:55:40.689Z,99.90
2018-06-22T05:58:07.707Z,99.90
2018-06-22T06:00:34.621Z,99.90
2018-06-22T06:03:01.902Z,99.90
2018-06-22T06:05:28.849Z,99.90
2018-06-22T06:07:55.790Z,99.90
2018-06-22T06:10:22.725Z,99.90
2018-06-22T06:12:49.667Z,99.90
2018-06-22T06:15:16.657Z,99.90
2018-06-22T06:17:43.658Z,99.90
2018-06-22T06:20:11.077Z,99.90
2018-06-22T06:25:05.250Z,99.90
2018-06-22T06:27:32.193Z,99.90
2018-06-22T06:29:59.143Z,99.90
2018-06-22T06:32:26.086Z,99.90
2018-06-22T06:34:53.657Z,99.90
2018-06-22T06:37:20.618Z,99.90
2018-06-22T06:39:47.525Z,99.90
2018-06-22T06:42:14.474Z,99.90
2018-06-22T06:44:41.646Z,99.90
2018-06-22T06:49:36.716Z,99.90
2018-06-22T06:52:03.646Z,99.90
2018-06-22T06:54:30.566Z,99.90
2018-06-22T06:56:57.502Z,99.90
2018-06-22T06:59:24.418Z,99.90
2018-06-22T07:01:51.355Z,99.90
2018-06-22T07:04:18.290Z,99.90
2018-06-22T07:06:45.241Z,99.90
2018-06-22T07:09:12.162Z,99.90
2018-06-22T07:11:39.107Z,99.90
2018-06-22T07:14:06.046Z,99.90
2018-06-22T07:16:32.981Z,99.90
2018-06-22T07:18:59.886Z,99.90
2018-06-22T07:21:28.033Z,99.90
2018-06-22T07:23:54.949Z,99.90
2018-06-22T07:26:21.894Z,99.90
2018-06-22T07:28:48.858Z,99.90
2018-06-22T07:31:15.817Z,99.90
2018-06-22T07:33:42.992Z,99.90
2018-06-22T07:36:09.909Z,99.90
2018-06-22T07:38:36.854Z,99.90
2018-06-22T07:41:03.798Z,99.90
2018-06-22T07:43:30.723Z,99.90
2018-06-22T07:45:57.646Z,99.90
2018-06-22T07:48:24.598Z,99.90
2018-06-22T07:50:51.515Z,99.90
2018-06-22T07:53:18.619Z,99.90
2018-06-22T07:55:45.533Z,99.90
2018-06-22T07:58:12.479Z,99.90
2018-06-22T08:00:39.389Z,99.90
2018-06-22T08:03:06.350Z,99.90
2018-06-22T08:05:33.329Z,99.90
2018-06-22T08:08:00.286Z,99.90
2018-06-22T08:10:27.205Z,99.90
2018-06-22T08:12:54.151Z,99.90
2018-06-22T08:15:21.073Z,99.90
2018-06-22T08:17:48.011Z,99.90
2018-06-22T08:20:14.934Z,99.90
2018-06-22T08:22:42.038Z,99.90
2018-06-22T08:25:08.958Z,99.90
2018-06-22T08:27:35.905Z,99.90
2018-06-22T08:30:03.005Z,99.90
2018-06-22T08:32:29.958Z,99.90
2018-06-22T08:34:56.940Z,99.90
2018-06-22T08:37:23.874Z,99.90
2018-06-22T08:39:50.809Z,99.90
2018-06-22T08:42:17.770Z,99.90
2018-06-22T08:47:11.710Z,99.90
2018-06-22T08:49:38.657Z,99.90
2018-06-22T08:52:05.581Z,99.90
2018-06-22T08:54:32.517Z,99.90
2018-06-22T08:56:59.702Z,99.90
2018-06-22T08:59:26.637Z,99.90
2018-06-22T09:01:53.553Z,99.90
2018-06-22T09:04:20.537Z,99.90
2018-06-22T09:06:47.449Z,99.90
2018-06-22T09:09:14.395Z,99.90
2018-06-22T09:11:41.322Z,99.90
2018-06-22T09:14:08.261Z,99.90
2018-06-22T09:16:35.178Z,99.90
2018-06-22T09:19:02.129Z,99.90
2018-06-22T09:21:29.049Z,99.90
2018-06-22T09:23:56.330Z,99.90
2018-06-22T09:26:23.566Z,99.90
2018-06-22T09:28:50.781Z,99.90
2018-06-22T09:31:18.062Z,99.90
2018-06-22T09:33:44.978Z,99.90
2018-06-22T09:36:11.922Z,99.90
2018-06-22T09:38:38.841Z,99.90
2018-06-22T09:41:05.777Z,99.90
2018-06-22T09:43:32.701Z,99.90
2018-06-22T09:45:59.646Z,99.90
2018-06-22T09:48:26.565Z,99.90
2018-06-22T09:50:53.525Z,99.90
2018-06-22T09:53:20.441Z,99.90
2018-06-22T09:55:47.386Z,99.90
2018-06-22T09:58:14.310Z,99.90
2018-06-22T10:00:54.333Z,99.90
2018-06-22T10:03:22.589Z,99.90
2018-06-22T10:05:49.861Z,99.90
2018-06-22T10:08:17.142Z,99.90
2018-06-22T10:10:44.078Z,99.90
2018-06-22T10:13:11.003Z,99.90
2018-06-22T10:15:37.958Z,99.90
2018-06-22T10:18:04.885Z,99.90
2018-06-22T10:20:32.257Z,99.90
2018-06-22T10:22:59.176Z,99.90
2018-06-22T10:25:26.201Z,99.90
2018-06-22T10:27:53.286Z,99.90
2018-06-22T10:30:20.234Z,99.90
2018-06-22T10:32:47.152Z,99.90
2018-06-22T10:35:14.098Z,99.90
2018-06-22T10:37:41.166Z,99.90
2018-06-22T10:40:08.122Z,99.90
2018-06-22T10:42:35.046Z,99.90
2018-06-22T10:45:01.998Z,99.90
2018-06-22T10:47:28.917Z,99.90
2018-06-22T10:49:55.869Z,99.90
2018-06-22T10:52:22.793Z,99.90
2018-06-22T10:54:49.741Z,99.90
2018-06-22T10:57:16.667Z,99.90
2018-06-22T10:59:43.640Z,99.90
2018-06-22T11:02:10.590Z,99.90
2018-06-22T11:04:37.558Z,99.90
2018-06-22T11:07:04.470Z,99.90
2018-06-22T11:09:31.410Z,99.90
2018-06-22T11:11:58.330Z,99.90
2018-06-22T11:14:25.478Z,99.90
2018-06-22T11:16:52.490Z,99.90
2018-06-22T11:19:19.422Z,99.90
2018-06-22T11:21:46.607Z,99.90
2018-06-22T11:24:13.551Z,99.90
2018-06-22T11:26:40.465Z,99.90
2018-06-22T11:29:07.538Z,98.60
2018-06-22T11:31:34.462Z,99.20
2018-06-22T11:34:01.374Z,99.90
2018-06-22T11:36:28.408Z,99.90
2018-06-22T11:38:55.428Z,99.90
2018-06-22T11:41:22.398Z,99.80
2018-06-22T11:43:49.329Z,99.20
2018-06-22T11:46:16.265Z,95.50
2018-06-22T11:48:43.357Z,95.10
2018-06-22T11:51:10.300Z,94.60
2018-06-22T11:56:04.146Z,97.00
2018-06-22T11:58:31.068Z,95.90
2018-06-22T12:00:58.014Z,96.50
2018-06-22T12:03:24.964Z,96.60
2018-06-22T12:05:51.925Z,93.90
2018-06-22T12:08:18.856Z,95.00
2018-06-22T12:10:45.799Z,94.40
2018-06-22T12:13:12.718Z,95.80
2018-06-22T12:15:39.663Z,95.80
2018-06-22T12:18:06.577Z,94.40
2018-06-22T12:20:33.517Z,93.20
2018-06-22T12:23:00.437Z,92.00
2018-06-22T12:25:27.393Z,91.80
2018-06-22T12:27:54.317Z,90.90
2018-06-22T12:30:21.254Z,91.00
2018-06-22T12:32:48.546Z,91.50
2018-06-22T12:35:15.505Z,92.10
2018-06-22T12:37:42.431Z,93.30
2018-06-22T12:40:09.422Z,94.70
2018-06-22T12:42:36.365Z,94.30
2018-06-22T12:45:03.410Z,95.00
2018-06-22T12:47:31.009Z,95.40
2018-06-22T12:49:58.201Z,95.50
2018-06-22T12:52:25.478Z,95.50
2018-06-22T12:54:52.402Z,95.50
2018-06-22T12:57:19.341Z,94.90
2018-06-22T12:59:46.254Z,94.80
2018-06-22T13:02:13.198Z,93.10
2018-06-22T13:04:40.142Z,86.20
2018-06-22T13:07:07.246Z,84.50
2018-06-22T13:09:34.222Z,86.20
2018-06-22T13:12:01.210Z,85.00
2018-06-22T13:14:28.102Z,83.70
2018-06-22T13:16:55.049Z,87.50
2018-06-22T13:19:21.970Z,85.30
2018-06-22T13:21:50.965Z,86.50
2018-06-22T13:24:18.498Z,88.80
2018-06-22T13:26:45.446Z,90.20
2018-06-22T13:29:12.597Z,90.20
2018-06-22T13:31:39.582Z,91.30
2018-06-22T13:34:06.534Z,92.00
2018-06-22T13:36:33.450Z,92.90
2018-06-22T13:39:00.396Z,94.70
2018-06-22T13:41:27.314Z,96.60
2018-06-22T13:43:54.249Z,96.90
2018-06-22T13:46:21.166Z,97.80
2018-06-22T13:48:48.105Z,99.90
2018-06-22T13:51:15.023Z,99.90
2018-06-22T13:53:41.968Z,99.90
2018-06-22T13:56:08.885Z,99.90
2018-06-22T13:58:35.825Z,99.90
2018-06-22T14:01:02.750Z,99.90
2018-06-22T14:03:29.692Z,99.80
2018-06-22T14:06:02.286Z,99.90
2018-06-22T14:08:29.243Z,97.30
2018-06-22T14:10:56.158Z,94.50
2018-06-22T14:13:23.103Z,92.40
2018-06-22T14:15:50.023Z,91.90
2018-06-22T14:18:16.958Z,89.30
2018-06-22T14:20:43.869Z,90.40
2018-06-22T14:23:11.118Z,85.10
2018-06-22T14:25:38.103Z,88.60
2018-06-22T14:28:05.050Z,89.40
2018-06-22T14:30:32.302Z,88.50
2018-06-22T14:32:59.253Z,87.90
2018-06-22T14:35:26.222Z,88.00
2018-06-22T14:37:53.185Z,87.40
2018-06-22T14:40:20.098Z,87.50
2018-06-22T14:42:47.366Z,89.30
2018-06-22T14:45:14.330Z,90.00
2018-06-22T14:47:41.282Z,90.20
2018-06-22T14:50:13.854Z,90.90
2018-06-22T14:52:40.761Z,92.10
2018-06-22T14:55:13.490Z,92.80
2018-06-22T14:57:46.209Z,93.30
2018-06-22T15:00:18.822Z,94.30
2018-06-22T15:02:51.524Z,94.50
2018-06-22T15:05:24.153Z,95.00
2018-06-22T15:07:52.702Z,95.70
2018-06-22T15:10:19.621Z,96.20
2018-06-22T15:12:46.562Z,95.40
2018-06-22T15:17:46.226Z,94.40
2018-06-22T15:20:13.184Z,94.90
2018-06-22T15:22:40.130Z,95.00
2018-06-22T15:25:07.065Z,94.70
2018-06-22T15:27:34.008Z,93.90
2018-06-22T15:30:00.930Z,92.20
2018-06-22T15:32:27.882Z,92.40
2018-06-22T15:35:00.451Z,93.00
2018-06-22T15:37:33.077Z,94.00
2018-06-22T15:40:05.678Z,94.20
2018-06-22T15:42:38.525Z,94.70
2018-06-22T15:45:11.166Z,94.20
2018-06-22T15:47:43.693Z,93.70
2018-06-22T15:50:16.283Z,93.40
2018-06-22T15:52:48.869Z,91.60
2018-06-22T15:55:18.505Z,90.80
2018-06-22T15:57:45.450Z,89.90
2018-06-22T16:00:12.678Z,88.50
2018-06-22T16:02:45.390Z,87.70
2018-06-22T16:05:12.347Z,87.30
2018-06-22T16:07:39.561Z,89.40
2018-06-22T16:10:06.482Z,89.60
2018-06-22T16:12:34.910Z,89.00
2018-06-22T16:15:07.814Z,89.10
2018-06-22T16:17:40.364Z,90.70
2018-06-22T16:20:13.038Z,91.10
2018-06-22T16:22:46.086Z,91.20
2018-06-22T16:25:18.778Z,92.00
2018-06-22T16:27:48.521Z,91.60
2018-06-22T16:30:15.478Z,91.70
2018-06-22T16:32:42.396Z,92.20
2018-06-22T16:35:09.344Z,92.30
2018-06-22T16:37:36.260Z,92.70
2018-06-22T16:40:03.447Z,92.30
2018-06-22T16:42:30.371Z,92.30
2018-06-22T16:44:57.314Z,93.10
2018-06-22T16:47:24.234Z,92.90
2018-06-22T16:49:51.175Z,92.30
2018-06-22T16:52:18.126Z,91.70
2018-06-22T16:54:45.070Z,91.90
2018-06-22T16:57:12.044Z,91.40
2018-06-22T16:59:38.991Z,91.80
2018-06-22T17:02:06.030Z,91.30
2018-06-22T17:04:32.979Z,90.30
2018-06-22T17:07:05.702Z,90.30
2018-06-22T17:09:38.430Z,89.40
2018-06-22T17:12:11.111Z,89.30
2018-06-22T17:14:43.756Z,89.90
2018-06-22T17:17:16.345Z,90.70
2018-06-22T17:19:43.296Z,90.90
2018-06-22T17:22:10.223Z,91.00
2018-06-22T17:24:37.170Z,91.10
2018-06-22T17:29:31.007Z,91.70
2018-06-22T17:31:57.927Z,91.80
2018-06-22T17:34:25.141Z,92.10
2018-06-22T17:36:52.062Z,92.20
2018-06-22T17:39:19.009Z,92.60
2018-06-22T17:41:45.935Z,92.90
2018-06-22T17:44:12.875Z,93.00
2018-06-22T17:46:39.834Z,93.20
2018-06-22T17:49:06.768Z,93.50
2018-06-22T17:51:33.762Z,93.30
2018-06-22T17:54:00.667Z,93.30
2018-06-22T17:56:31.097Z,93.50
2018-06-22T17:59:03.872Z,93.40
2018-06-22T18:01:36.722Z,93.80
2018-06-22T18:04:09.566Z,93.50
2018-06-22T18:06:42.182Z,93.40
2018-06-22T18:09:11.610Z,93.70
2018-06-22T18:11:44.490Z,93.80
2018-06-22T18:14:11.430Z,94.30
2018-06-22T18:16:38.345Z,94.20
2018-06-22T18:19:05.290Z,94.20
2018-06-22T18:21:32.218Z,94.80
2018-06-22T18:23:59.486Z,94.80
2018-06-22T18:26:26.405Z,95.10
2018-06-22T18:28:53.352Z,95.40
2018-06-22T18:31:20.279Z,95.30
2018-06-22T18:33:47.221Z,95.70
2018-06-22T18:36:14.157Z,95.70
2018-06-22T18:38:41.141Z,95.70
2018-06-22T18:41:08.054Z,95.90
2018-06-22T18:43:41.065Z,96.00
2018-06-22T18:46:07.990Z,96.10
2018-06-22T18:48:34.945Z,95.80
2018-06-22T18:51:01.879Z,96.30
2018-06-22T18:53:34.486Z,96.30
2018-06-22T18:56:07.206Z,96.50
2018-06-22T18:58:39.779Z,96.60
2018-06-22T19:03:47.429Z,97.00
2018-06-22T19:06:14.399Z,97.30
2018-06-22T19:08:41.580Z,97.30
2018-06-22T19:13:35.465Z,97.80
2018-06-22T19:16:02.381Z,98.10
2018-06-22T19:18:29.337Z,98.40
2018-06-22T19:20:56.498Z,98.30
2018-06-22T19:23:23.478Z,98.80
2018-06-22T19:25:50.397Z,98.90
2018-06-22T19:28:17.518Z,99.10
2018-06-22T19:30:44.473Z,99.50
2018-06-22T19:33:11.398Z,99.80
2018-06-22T19:35:38.344Z,99.90
2018-06-22T19:38:05.261Z,99.90
2018-06-22T19:40:32.214Z,99.90
2018-06-22T19:42:59.125Z,99.90
2018-06-22T19:45:31.719Z,99.90
2018-06-22T19:48:04.407Z,99.90
2018-06-22T19:50:37.097Z,99.90
2018-06-22T19:53:09.894Z,99.90
2018-06-22T19:55:36.874Z,99.90
2018-06-22T19:58:03.826Z,99.90
2018-06-22T20:00:30.780Z,99.90
2018-06-22T20:02:57.717Z,99.90
2018-06-22T20:05:24.653Z,99.90
2018-06-22T20:07:51.597Z,99.90
2018-06-22T20:10:18.537Z,99.90
2018-06-22T20:12:45.807Z,99.90
2018-06-22T20:15:12.794Z,99.90
2018-06-22T20:17:39.719Z,99.90
2018-06-22T20:20:06.675Z,99.90
2018-06-22T20:22:33.607Z,99.90
2018-06-22T20:25:06.446Z,99.90
2018-06-22T20:27:33.366Z,99.90
2018-06-22T20:30:00.354Z,99.90
2018-06-22T20:32:27.311Z,99.90
2018-06-22T20:35:00.068Z,99.90
2018-06-22T20:37:32.849Z,99.90
2018-06-22T20:40:05.526Z,99.90
2018-06-22T20:42:38.185Z,99.90
2018-06-22T20:45:10.903Z,99.90
2018-06-22T20:47:43.346Z,99.90
2018-06-22T20:50:16.014Z,99.90
2018-06-22T20:52:42.962Z,99.90
2018-06-22T20:55:09.913Z,99.90
2018-06-22T20:57:37.122Z,99.90
2018-06-22T21:00:04.150Z,99.90
2018-06-22T21:02:31.095Z,99.90
2018-06-22T21:04:58.018Z,99.90
2018-06-22T21:07:24.996Z,99.90
2018-06-22T21:09:52.139Z,99.90
2018-06-22T21:12:26.255Z,99.90
2018-06-22T21:14:46.074Z,99.90
2018-06-22T21:17:13.018Z,99.90
2018-06-22T21:19:39.949Z,99.90
2018-06-22T21:22:10.994Z,99.90
2018-06-22T21:27:11.586Z,99.90
2018-06-22T21:29:44.397Z,99.90
2018-06-22T21:32:17.026Z,99.90
2018-06-22T21:34:49.638Z,99.90
2018-06-22T21:37:22.182Z,99.90
2018-06-22T21:39:49.323Z,99.90
2018-06-22T21:42:16.256Z,99.90
2018-06-22T21:44:43.378Z,99.90
2018-06-22T21:47:10.326Z,99.90
2018-06-22T21:49:37.281Z,99.90
2018-06-22T21:52:04.333Z,99.90
2018-06-22T21:54:31.281Z,99.90
2018-06-22T21:56:58.198Z,99.90
2018-06-22T21:59:25.150Z,99.90
2018-06-22T22:01:52.431Z,99.90
2018-06-22T22:04:19.400Z,99.90
2018-06-22T22:06:46.342Z,99.90
2018-06-22T22:09:13.289Z,99.90
2018-06-22T22:11:45.698Z,99.90
2018-06-22T22:14:12.635Z,99.90
2018-06-22T22:16:39.558Z,99.90
2018-06-22T22:19:06.501Z,99.90
2018-06-22T22:21:33.425Z,99.90
2018-06-22T22:24:00.370Z,99.90
2018-06-22T22:26:27.302Z,99.90
2018-06-22T22:28:54.249Z,99.90
2018-06-22T22:31:21.169Z,99.90
2018-06-22T22:33:48.413Z,99.90
2018-06-22T22:36:15.333Z,99.90
2018-06-22T22:38:42.334Z,99.90
2018-06-22T22:41:09.249Z,99.90
2018-06-22T22:43:36.197Z,99.90
2018-06-22T22:46:03.109Z,99.90
2018-06-22T22:48:30.023Z,99.90
2018-06-22T22:50:56.997Z,99.90
2018-06-22T22:53:23.973Z,99.90
2018-06-22T22:55:50.965Z,99.90
2018-06-22T22:58:17.877Z,99.90
2018-06-22T23:00:44.838Z,99.90
2018-06-22T23:03:11.758Z,99.90
2018-06-22T23:05:38.727Z,99.90
2018-06-22T23:08:05.646Z,99.90
2018-06-22T23:10:32.590Z,99.90
2018-06-22T23:12:59.522Z,99.90
2018-06-22T23:15:26.499Z,99.90
2018-06-22T23:17:53.421Z,99.90
2018-06-22T23:20:20.357Z,99.90
2018-06-22T23:22:52.926Z,99.90
2018-06-22T23:25:20.217Z,99.90
2018-06-22T23:27:47.139Z,99.90
2018-06-22T23:30:14.090Z,99.90
2018-06-22T23:32:40.998Z,99.90
2018-06-22T23:35:07.942Z,99.90
2018-06-22T23:37:34.857Z,99.90
2018-06-22T23:40:01.796Z,99.90
2018-06-22T23:42:28.700Z,99.90
2018-06-22T23:44:55.649Z,99.90
2018-06-22T23:47:22.565Z,99.90
2018-06-22T23:49:49.502Z,99.90
2018-06-22T23:52:16.657Z,99.90
2018-06-22T23:54:43.597Z,99.90
2018-06-22T23:57:10.513Z,99.90
2018-06-22T23:59:37.468Z,99.90
